SWA1804 KBWI-TNCA
Flight info
| Callsign | SWA1804 |
|---|---|
| Flight time | 3h 50m |
| Altitude | 38000 |
| Route | CONLE5 SCOOB DCT EARZZ DCT SKARP Y313 IDOLS DCT CANIT/N0446F370 DCT NUCAR/N0447F390 Y374 RUMFO DCT JOSES DCT EBLER UA315 VESKA VESKA2A |
| Aircraft | B38M/M-SDE1FGHILORVWXY/HB1 |
Departure
| Time | 2026-05-06 14:41 |
|---|---|
| Airport | Baltimore/Washington International Thurgood Marshall Airport (KBWI) |
Arrival
| Time | 2026-05-06 18:32 |
|---|---|
| Airport | Queen Beatrix International Airport (TNCA) |
| Time | Latitude | Longitude | Altitude | Speed | Heading |
|---|---|---|---|---|---|
| 2026-05-06 13:59 | 39.18035 | -76.67353 | 157 ft | 0 kts | 55° |
| 2026-05-06 14:29 | 39.18026 | -76.67369 | 158 ft | 4 kts | 55° |
| 2026-05-06 14:30 | 39.18012 | -76.67394 | 158 ft | 4 kts | 62° |
| 2026-05-06 14:30 | 39.18009 | -76.67422 | 159 ft | 4 kts | 119° |
| 2026-05-06 14:30 | 39.18025 | -76.67443 | 159 ft | 2 kts | 144° |
| 2026-05-06 14:30 | 39.18030 | -76.67447 | 159 ft | 0 kts | 144° |
| 2026-05-06 14:35 | 39.18024 | -76.67442 | 159 ft | 5 kts | 144° |
| 2026-05-06 14:35 | 39.17957 | -76.67381 | 157 ft | 16 kts | 144° |
| 2026-05-06 14:35 | 39.17859 | -76.67292 | 157 ft | 17 kts | 144° |
| 2026-05-06 14:35 | 39.17766 | -76.67205 | 159 ft | 16 kts | 142° |
| 2026-05-06 14:36 | 39.17675 | -76.67119 | 160 ft | 16 kts | 145° |
| 2026-05-06 14:36 | 39.17589 | -76.67038 | 162 ft | 15 kts | 139° |
| 2026-05-06 14:36 | 39.17539 | -76.66926 | 162 ft | 15 kts | 97° |
| 2026-05-06 14:36 | 39.17530 | -76.66784 | 161 ft | 15 kts | 98° |
| 2026-05-06 14:37 | 39.17520 | -76.66649 | 160 ft | 16 kts | 92° |
| 2026-05-06 14:37 | 39.17563 | -76.66523 | 157 ft | 17 kts | 43° |
| 2026-05-06 14:37 | 39.17535 | -76.66397 | 155 ft | 17 kts | 123° |
| 2026-05-06 14:37 | 39.17469 | -76.66264 | 154 ft | 18 kts | 121° |
| 2026-05-06 14:38 | 39.17450 | -76.66113 | 154 ft | 18 kts | 93° |
| 2026-05-06 14:38 | 39.17441 | -76.65947 | 153 ft | 19 kts | 94° |
| 2026-05-06 14:38 | 39.17431 | -76.65778 | 156 ft | 18 kts | 94° |
| 2026-05-06 14:38 | 39.17422 | -76.65624 | 159 ft | 17 kts | 96° |
| 2026-05-06 14:39 | 39.17378 | -76.65526 | 159 ft | 0 kts | 162° |
| 2026-05-06 14:39 | 39.17369 | -76.65524 | 159 ft | 5 kts | 171° |
| 2026-05-06 14:40 | 39.17303 | -76.65540 | 159 ft | 13 kts | 210° |
| 2026-05-06 14:40 | 39.17283 | -76.65643 | 157 ft | 3 kts | 275° |
| 2026-05-06 14:40 | 39.17283 | -76.65644 | 157 ft | 1 kts | 275° |
| 2026-05-06 14:41 | 39.17298 | -76.65866 | 156 ft | 63 kts | 274° |
| 2026-05-06 14:41 | 39.17364 | -76.66774 | 162 ft | 137 kts | 276° |
| 2026-05-06 14:41 | 39.17432 | -76.68273 | 238 ft | 191 kts | 272° |
| 2026-05-06 14:41 | 39.17505 | -76.70106 | 891 ft | 213 kts | 271° |
| 2026-05-06 14:42 | 39.17582 | -76.72027 | 1976 ft | 219 kts | 271° |
| 2026-05-06 14:42 | 39.17593 | -76.74076 | 2675 ft | 238 kts | 259° |
| 2026-05-06 14:42 | 39.16853 | -76.75965 | 3283 ft | 250 kts | 218° |
| 2026-05-06 14:42 | 39.15178 | -76.76706 | 3903 ft | 270 kts | 180° |
| 2026-05-06 14:43 | 39.13455 | -76.75866 | 5216 ft | 264 kts | 147° |
| 2026-05-06 14:43 | 39.12098 | -76.74370 | 5876 ft | 256 kts | 147° |
| 2026-05-06 14:43 | 39.10781 | -76.72833 | 5977 ft | 254 kts | 146° |
| 2026-05-06 14:43 | 39.09453 | -76.71330 | 6042 ft | 254 kts | 148° |
| 2026-05-06 14:44 | 39.08072 | -76.69829 | 6149 ft | 267 kts | 148° |
| 2026-05-06 14:44 | 39.06626 | -76.68283 | 6263 ft | 273 kts | 148° |
| 2026-05-06 14:44 | 39.05148 | -76.66715 | 6402 ft | 276 kts | 148° |
| 2026-05-06 14:45 | 39.02418 | -76.63132 | 7342 ft | 283 kts | 137° |
| 2026-05-06 14:45 | 39.01129 | -76.61183 | 8211 ft | 290 kts | 137° |
| 2026-05-06 14:45 | 38.99810 | -76.59194 | 9100 ft | 294 kts | 137° |
| 2026-05-06 14:45 | 38.98471 | -76.57184 | 9937 ft | 298 kts | 137° |
| 2026-05-06 14:46 | 38.97102 | -76.55131 | 10663 ft | 310 kts | 137° |
| 2026-05-06 14:46 | 38.95658 | -76.52967 | 11161 ft | 326 kts | 137° |
| 2026-05-06 14:46 | 38.94038 | -76.50922 | 11740 ft | 327 kts | 153° |
| 2026-05-06 14:46 | 38.91983 | -76.49789 | 12439 ft | 319 kts | 175° |
| 2026-05-06 14:47 | 38.89802 | -76.49707 | 13197 ft | 314 kts | 192° |
| 2026-05-06 14:47 | 38.87627 | -76.50154 | 13788 ft | 321 kts | 194° |
| 2026-05-06 14:47 | 38.85423 | -76.50674 | 13969 ft | 321 kts | 195° |
| 2026-05-06 14:47 | 38.83310 | -76.51511 | 14023 ft | 317 kts | 205° |
| 2026-05-06 14:48 | 38.81247 | -76.52541 | 14046 ft | 319 kts | 204° |
| 2026-05-06 14:48 | 38.79168 | -76.53558 | 14581 ft | 319 kts | 204° |
| 2026-05-06 14:48 | 38.77082 | -76.54570 | 15312 ft | 323 kts | 204° |
| 2026-05-06 14:48 | 38.74963 | -76.55590 | 15958 ft | 327 kts | 205° |
| 2026-05-06 14:49 | 38.72824 | -76.56618 | 16626 ft | 330 kts | 205° |
| 2026-05-06 14:49 | 38.70665 | -76.57654 | 17229 ft | 334 kts | 205° |
| 2026-05-06 14:49 | 38.68471 | -76.58686 | 17854 ft | 338 kts | 205° |
| 2026-05-06 14:49 | 38.66254 | -76.59712 | 18448 ft | 341 kts | 205° |
| 2026-05-06 14:50 | 38.64038 | -76.60739 | 18989 ft | 345 kts | 205° |
| 2026-05-06 14:50 | 38.61768 | -76.61791 | 19543 ft | 349 kts | 205° |
| 2026-05-06 14:50 | 38.59440 | -76.62869 | 20057 ft | 353 kts | 205° |
| 2026-05-06 14:50 | 38.57120 | -76.63943 | 20581 ft | 357 kts | 205° |
| 2026-05-06 14:51 | 38.54808 | -76.65013 | 21041 ft | 361 kts | 205° |
| 2026-05-06 14:51 | 38.52436 | -76.66109 | 21534 ft | 364 kts | 205° |
| 2026-05-06 14:51 | 38.50042 | -76.67215 | 22021 ft | 367 kts | 205° |
| 2026-05-06 14:51 | 38.47626 | -76.68330 | 22460 ft | 371 kts | 206° |
| 2026-05-06 14:52 | 38.45191 | -76.69453 | 22907 ft | 375 kts | 205° |
| 2026-05-06 14:52 | 38.42726 | -76.70570 | 23352 ft | 380 kts | 202° |
| 2026-05-06 14:52 | 38.40064 | -76.71043 | 23846 ft | 394 kts | 185° |
| 2026-05-06 14:52 | 38.37300 | -76.70718 | 24267 ft | 402 kts | 180° |
| 2026-05-06 14:53 | 38.34506 | -76.70318 | 24603 ft | 407 kts | 180° |
| 2026-05-06 14:53 | 38.31677 | -76.69889 | 25020 ft | 411 kts | 180° |
| 2026-05-06 14:53 | 38.28827 | -76.69440 | 25405 ft | 414 kts | 180° |
| 2026-05-06 14:53 | 38.25953 | -76.68980 | 25772 ft | 418 kts | 180° |
| 2026-05-06 14:54 | 38.23060 | -76.68515 | 26134 ft | 421 kts | 180° |
| 2026-05-06 14:54 | 38.20155 | -76.68048 | 26488 ft | 424 kts | 180° |
| 2026-05-06 14:54 | 38.17211 | -76.67575 | 26813 ft | 427 kts | 180° |
| 2026-05-06 14:54 | 38.14256 | -76.67099 | 27152 ft | 430 kts | 180° |
| 2026-05-06 14:55 | 38.11269 | -76.66621 | 27462 ft | 434 kts | 181° |
| 2026-05-06 14:55 | 38.08278 | -76.66365 | 27780 ft | 431 kts | 186° |
| 2026-05-06 14:55 | 38.05265 | -76.66193 | 28057 ft | 436 kts | 185° |
| 2026-05-06 14:55 | 38.02224 | -76.65997 | 28405 ft | 438 kts | 185° |
| 2026-05-06 14:56 | 37.99173 | -76.65790 | 28699 ft | 441 kts | 185° |
| 2026-05-06 14:56 | 37.96114 | -76.65578 | 28971 ft | 444 kts | 185° |
| 2026-05-06 14:56 | 37.93006 | -76.65362 | 29154 ft | 450 kts | 185° |
| 2026-05-06 14:56 | 37.89878 | -76.65145 | 29518 ft | 450 kts | 185° |
| 2026-05-06 14:57 | 37.86734 | -76.64927 | 29766 ft | 454 kts | 185° |
| 2026-05-06 14:57 | 37.83576 | -76.64707 | 30059 ft | 456 kts | 185° |
| 2026-05-06 14:57 | 37.80395 | -76.64487 | 30319 ft | 459 kts | 185° |
| 2026-05-06 14:57 | 37.77204 | -76.64266 | 30592 ft | 461 kts | 185° |
| 2026-05-06 14:58 | 37.74000 | -76.64044 | 30853 ft | 463 kts | 185° |
| 2026-05-06 14:58 | 37.70783 | -76.63821 | 31108 ft | 465 kts | 185° |
| 2026-05-06 14:58 | 37.67545 | -76.63598 | 31381 ft | 467 kts | 185° |
| 2026-05-06 14:58 | 37.64294 | -76.63374 | 31638 ft | 469 kts | 185° |
| 2026-05-06 14:59 | 37.61028 | -76.63148 | 31876 ft | 471 kts | 185° |
| 2026-05-06 14:59 | 37.57781 | -76.63202 | 32116 ft | 461 kts | 196° |
| 2026-05-06 14:59 | 37.54582 | -76.63672 | 32290 ft | 465 kts | 195° |
| 2026-05-06 14:59 | 37.51363 | -76.64108 | 32590 ft | 465 kts | 195° |
| 2026-05-06 15:00 | 37.48147 | -76.64547 | 32885 ft | 465 kts | 195° |
| 2026-05-06 15:00 | 37.44940 | -76.64985 | 33213 ft | 465 kts | 195° |
| 2026-05-06 15:00 | 37.41727 | -76.65425 | 33550 ft | 464 kts | 196° |
| 2026-05-06 15:00 | 37.38517 | -76.65863 | 33822 ft | 464 kts | 196° |
| 2026-05-06 15:01 | 37.35305 | -76.66301 | 34114 ft | 464 kts | 196° |
| 2026-05-06 15:01 | 37.32097 | -76.66738 | 34416 ft | 463 kts | 196° |
| 2026-05-06 15:01 | 37.28893 | -76.67176 | 34676 ft | 464 kts | 196° |
| 2026-05-06 15:01 | 37.25684 | -76.67612 | 34912 ft | 464 kts | 197° |
| 2026-05-06 15:02 | 37.22483 | -76.68047 | 35183 ft | 464 kts | 197° |
| 2026-05-06 15:02 | 37.19315 | -76.68478 | 35388 ft | 465 kts | 197° |
| 2026-05-06 15:02 | 37.16100 | -76.68914 | 35581 ft | 466 kts | 197° |
| 2026-05-06 15:02 | 37.12881 | -76.69351 | 35802 ft | 466 kts | 197° |
| 2026-05-06 15:03 | 37.09653 | -76.69788 | 35981 ft | 467 kts | 197° |
| 2026-05-06 15:03 | 37.06422 | -76.70226 | 36176 ft | 467 kts | 197° |
| 2026-05-06 15:03 | 37.03191 | -76.70663 | 36367 ft | 467 kts | 198° |
| 2026-05-06 15:03 | 36.99955 | -76.71100 | 36509 ft | 468 kts | 198° |
| 2026-05-06 15:04 | 36.96723 | -76.71536 | 36689 ft | 469 kts | 198° |
| 2026-05-06 15:04 | 36.93483 | -76.71974 | 36887 ft | 469 kts | 198° |
| 2026-05-06 15:04 | 36.90245 | -76.72410 | 37160 ft | 466 kts | 198° |
| 2026-05-06 15:04 | 36.87027 | -76.72844 | 37386 ft | 465 kts | 198° |
| 2026-05-06 15:05 | 36.83817 | -76.73276 | 37587 ft | 463 kts | 198° |
| 2026-05-06 15:05 | 36.81695 | -76.73562 | 37698 ft | 463 kts | 199° |
| 2026-05-06 15:05 | 36.78490 | -76.73992 | 37776 ft | 464 kts | 199° |
| 2026-05-06 15:06 | 36.72063 | -76.74859 | 37951 ft | 464 kts | 199° |
| 2026-05-06 15:06 | 36.68857 | -76.75287 | 38069 ft | 465 kts | 199° |
| 2026-05-06 15:06 | 36.65630 | -76.75718 | 38062 ft | 467 kts | 199° |
| 2026-05-06 15:07 | 36.59176 | -76.76580 | 38053 ft | 466 kts | 199° |
| 2026-05-06 15:07 | 36.52707 | -76.77445 | 38059 ft | 468 kts | 199° |
| 2026-05-06 15:08 | 36.46240 | -76.78308 | 38049 ft | 468 kts | 199° |
| 2026-05-06 15:08 | 36.39762 | -76.79170 | 38053 ft | 469 kts | 198° |
| 2026-05-06 15:09 | 36.33266 | -76.80033 | 38056 ft | 470 kts | 198° |
| 2026-05-06 15:09 | 36.26758 | -76.80898 | 38062 ft | 470 kts | 198° |
| 2026-05-06 15:10 | 36.20269 | -76.81755 | 38062 ft | 469 kts | 198° |
| 2026-05-06 15:10 | 36.13773 | -76.82614 | 38062 ft | 469 kts | 198° |
| 2026-05-06 15:11 | 36.07266 | -76.83474 | 38069 ft | 471 kts | 198° |
| 2026-05-06 15:11 | 36.00738 | -76.84334 | 38073 ft | 472 kts | 198° |
| 2026-05-06 15:12 | 35.94260 | -76.85188 | 38059 ft | 475 kts | 198° |
| 2026-05-06 15:12 | 35.91001 | -76.85727 | 38098 ft | 464 kts | 207° |
| 2026-05-06 15:12 | 35.87983 | -76.86884 | 38262 ft | 452 kts | 211° |
| 2026-05-06 15:13 | 35.81932 | -76.89240 | 38335 ft | 457 kts | 211° |
| 2026-05-06 15:13 | 35.78904 | -76.90432 | 38453 ft | 457 kts | 211° |
| 2026-05-06 15:13 | 35.75876 | -76.91626 | 38550 ft | 457 kts | 211° |
| 2026-05-06 15:13 | 35.72856 | -76.92818 | 38651 ft | 457 kts | 211° |
| 2026-05-06 15:14 | 35.69828 | -76.94012 | 38752 ft | 457 kts | 211° |
| 2026-05-06 15:14 | 35.66800 | -76.95204 | 38859 ft | 457 kts | 211° |
| 2026-05-06 15:14 | 35.63781 | -76.96393 | 38999 ft | 455 kts | 211° |
| 2026-05-06 15:14 | 35.60771 | -76.97578 | 39101 ft | 454 kts | 211° |
| 2026-05-06 15:15 | 35.57752 | -76.98764 | 39086 ft | 456 kts | 211° |
| 2026-05-06 15:15 | 35.51725 | -77.01131 | 39082 ft | 455 kts | 211° |
| 2026-05-06 15:16 | 35.45707 | -77.03489 | 39078 ft | 455 kts | 211° |
| 2026-05-06 15:16 | 35.39680 | -77.05848 | 39082 ft | 455 kts | 211° |
| 2026-05-06 15:17 | 35.33647 | -77.08205 | 39082 ft | 455 kts | 211° |
| 2026-05-06 15:17 | 35.27613 | -77.10559 | 39080 ft | 455 kts | 211° |
| 2026-05-06 15:18 | 35.21587 | -77.12906 | 39082 ft | 455 kts | 211° |
| 2026-05-06 15:18 | 35.15549 | -77.15255 | 39092 ft | 455 kts | 211° |
| 2026-05-06 15:19 | 35.09507 | -77.17601 | 39091 ft | 455 kts | 211° |
| 2026-05-06 15:19 | 35.03465 | -77.19943 | 39090 ft | 456 kts | 211° |
| 2026-05-06 15:20 | 34.97435 | -77.22278 | 39090 ft | 456 kts | 211° |
| 2026-05-06 15:20 | 34.91397 | -77.24609 | 39100 ft | 452 kts | 212° |
| 2026-05-06 15:21 | 34.85440 | -77.26910 | 39091 ft | 448 kts | 212° |
| 2026-05-06 15:21 | 34.79474 | -77.29209 | 39091 ft | 451 kts | 212° |
| 2026-05-06 15:22 | 34.73495 | -77.31509 | 39090 ft | 452 kts | 212° |
| 2026-05-06 15:22 | 34.67542 | -77.33796 | 39082 ft | 452 kts | 212° |
| 2026-05-06 15:23 | 34.61548 | -77.36096 | 39081 ft | 452 kts | 212° |
| 2026-05-06 15:23 | 34.55545 | -77.38397 | 39091 ft | 454 kts | 211° |
| 2026-05-06 15:24 | 34.49515 | -77.40696 | 39090 ft | 456 kts | 210° |
| 2026-05-06 15:24 | 34.46346 | -77.41487 | 39087 ft | 470 kts | 202° |
| 2026-05-06 15:24 | 34.43122 | -77.42112 | 39132 ft | 469 kts | 202° |
| 2026-05-06 15:25 | 34.36661 | -77.43387 | 39085 ft | 469 kts | 202° |
| 2026-05-06 15:25 | 34.30210 | -77.44649 | 39092 ft | 472 kts | 202° |
| 2026-05-06 15:26 | 34.23727 | -77.45914 | 39095 ft | 473 kts | 202° |
| 2026-05-06 15:26 | 34.17219 | -77.47183 | 39090 ft | 473 kts | 202° |
| 2026-05-06 15:27 | 34.10712 | -77.48449 | 39090 ft | 473 kts | 202° |
| 2026-05-06 15:27 | 34.04220 | -77.49711 | 39093 ft | 473 kts | 202° |
| 2026-05-06 15:28 | 33.97771 | -77.50962 | 39094 ft | 473 kts | 202° |
| 2026-05-06 15:28 | 33.91255 | -77.52225 | 39100 ft | 475 kts | 202° |
| 2026-05-06 15:29 | 33.84681 | -77.53497 | 39088 ft | 475 kts | 202° |
| 2026-05-06 15:29 | 33.78204 | -77.54747 | 39100 ft | 476 kts | 202° |
| 2026-05-06 15:30 | 33.71670 | -77.56007 | 39112 ft | 476 kts | 202° |
| 2026-05-06 15:30 | 33.65142 | -77.57265 | 39104 ft | 475 kts | 202° |
| 2026-05-06 15:31 | 33.58620 | -77.58533 | 39100 ft | 473 kts | 203° |
| 2026-05-06 15:31 | 33.52160 | -77.59962 | 39100 ft | 473 kts | 203° |
| 2026-05-06 15:32 | 33.42447 | -77.62079 | 39096 ft | 473 kts | 203° |
| 2026-05-06 15:32 | 33.35975 | -77.63486 | 39097 ft | 472 kts | 203° |
| 2026-05-06 15:33 | 33.29518 | -77.64887 | 39101 ft | 472 kts | 203° |
| 2026-05-06 15:33 | 33.23050 | -77.66290 | 39099 ft | 472 kts | 202° |
| 2026-05-06 15:34 | 33.16574 | -77.67690 | 39093 ft | 472 kts | 202° |
| 2026-05-06 15:34 | 33.10103 | -77.69089 | 39102 ft | 473 kts | 202° |
| 2026-05-06 15:35 | 33.03629 | -77.70486 | 39099 ft | 474 kts | 202° |
| 2026-05-06 15:35 | 32.97176 | -77.71876 | 39102 ft | 474 kts | 202° |
| 2026-05-06 15:36 | 32.90640 | -77.73282 | 39102 ft | 474 kts | 202° |
| 2026-05-06 15:36 | 32.84199 | -77.74666 | 39100 ft | 474 kts | 202° |
| 2026-05-06 15:37 | 32.77726 | -77.76054 | 39097 ft | 473 kts | 201° |
| 2026-05-06 15:37 | 32.71240 | -77.77444 | 39101 ft | 473 kts | 201° |
| 2026-05-06 15:38 | 32.64765 | -77.78829 | 39102 ft | 473 kts | 201° |
| 2026-05-06 15:38 | 32.58298 | -77.80209 | 39096 ft | 472 kts | 201° |
| 2026-05-06 15:39 | 32.51853 | -77.81583 | 39100 ft | 471 kts | 201° |
| 2026-05-06 15:39 | 32.45394 | -77.82959 | 39095 ft | 472 kts | 201° |
| 2026-05-06 15:40 | 32.38942 | -77.84331 | 39098 ft | 471 kts | 201° |
| 2026-05-06 15:40 | 32.32498 | -77.85698 | 39107 ft | 471 kts | 201° |
| 2026-05-06 15:41 | 32.26040 | -77.87068 | 39101 ft | 471 kts | 201° |
| 2026-05-06 15:41 | 32.19592 | -77.88433 | 39094 ft | 471 kts | 201° |
| 2026-05-06 15:42 | 32.13133 | -77.89798 | 39092 ft | 471 kts | 201° |
| 2026-05-06 15:42 | 32.06692 | -77.91157 | 39090 ft | 471 kts | 201° |
| 2026-05-06 15:43 | 32.00241 | -77.92517 | 39098 ft | 471 kts | 201° |
| 2026-05-06 15:43 | 31.93834 | -77.93866 | 39100 ft | 471 kts | 201° |
| 2026-05-06 15:44 | 31.87380 | -77.95222 | 39100 ft | 471 kts | 201° |
| 2026-05-06 15:44 | 31.80932 | -77.96575 | 39101 ft | 471 kts | 201° |
| 2026-05-06 15:45 | 31.74479 | -77.97928 | 39101 ft | 471 kts | 201° |
| 2026-05-06 15:45 | 31.68026 | -77.99278 | 39101 ft | 471 kts | 201° |
| 2026-05-06 15:46 | 31.61572 | -78.00627 | 39100 ft | 471 kts | 201° |
| 2026-05-06 15:46 | 31.55121 | -78.01973 | 39101 ft | 471 kts | 200° |
| 2026-05-06 15:47 | 31.48665 | -78.03319 | 39101 ft | 471 kts | 200° |
| 2026-05-06 15:47 | 31.42213 | -78.04661 | 39101 ft | 471 kts | 200° |
| 2026-05-06 15:48 | 31.35760 | -78.06002 | 39096 ft | 471 kts | 200° |
| 2026-05-06 15:48 | 31.29318 | -78.07339 | 39101 ft | 471 kts | 200° |
| 2026-05-06 15:49 | 31.22865 | -78.08677 | 39102 ft | 471 kts | 200° |
| 2026-05-06 15:49 | 31.16415 | -78.10012 | 39111 ft | 471 kts | 200° |
| 2026-05-06 15:50 | 31.09970 | -78.11344 | 39113 ft | 471 kts | 200° |
| 2026-05-06 15:50 | 31.04607 | -78.12450 | 39107 ft | 471 kts | 200° |
| 2026-05-06 15:51 | 30.97066 | -78.14005 | 39110 ft | 471 kts | 200° |
| 2026-05-06 15:51 | 30.90617 | -78.15332 | 39110 ft | 471 kts | 200° |
| 2026-05-06 15:52 | 30.84185 | -78.16654 | 39118 ft | 470 kts | 200° |
| 2026-05-06 15:52 | 30.78822 | -78.17755 | 39119 ft | 471 kts | 200° |
| 2026-05-06 15:53 | 30.71328 | -78.19291 | 39113 ft | 470 kts | 200° |
| 2026-05-06 15:53 | 30.64869 | -78.20613 | 39125 ft | 472 kts | 199° |
| 2026-05-06 15:54 | 30.59464 | -78.21718 | 39116 ft | 472 kts | 199° |
| 2026-05-06 15:54 | 30.53003 | -78.23037 | 39122 ft | 472 kts | 199° |
| 2026-05-06 15:55 | 30.46545 | -78.24354 | 39108 ft | 471 kts | 199° |
| 2026-05-06 15:55 | 30.40079 | -78.25671 | 39114 ft | 472 kts | 199° |
| 2026-05-06 15:56 | 30.33649 | -78.26979 | 39109 ft | 473 kts | 199° |
| 2026-05-06 15:56 | 30.27173 | -78.28294 | 39109 ft | 473 kts | 199° |
| 2026-05-06 15:57 | 30.20691 | -78.29609 | 39109 ft | 473 kts | 199° |
| 2026-05-06 15:57 | 30.14214 | -78.30921 | 39111 ft | 473 kts | 199° |
| 2026-05-06 15:58 | 30.07742 | -78.32230 | 39107 ft | 473 kts | 199° |
| 2026-05-06 15:58 | 30.01260 | -78.33539 | 39109 ft | 473 kts | 199° |
| 2026-05-06 15:59 | 29.94777 | -78.34847 | 39108 ft | 473 kts | 199° |
| 2026-05-06 15:59 | 29.88290 | -78.36155 | 39109 ft | 473 kts | 199° |
| 2026-05-06 16:00 | 29.81809 | -78.37459 | 39110 ft | 474 kts | 199° |
| 2026-05-06 16:00 | 29.75313 | -78.38764 | 39110 ft | 474 kts | 199° |
| 2026-05-06 16:01 | 29.68821 | -78.40068 | 39108 ft | 473 kts | 199° |
| 2026-05-06 16:01 | 29.62348 | -78.41366 | 39110 ft | 473 kts | 199° |
| 2026-05-06 16:02 | 29.55696 | -78.41611 | 39102 ft | 494 kts | 173° |
| 2026-05-06 16:02 | 29.52409 | -78.40337 | 39114 ft | 505 kts | 159° |
| 2026-05-06 16:02 | 29.49237 | -78.38585 | 39111 ft | 506 kts | 159° |
| 2026-05-06 16:03 | 29.42896 | -78.35104 | 39119 ft | 510 kts | 159° |
| 2026-05-06 16:03 | 29.36533 | -78.31555 | 39107 ft | 509 kts | 158° |
| 2026-05-06 16:04 | 29.30168 | -78.28005 | 39110 ft | 508 kts | 158° |
| 2026-05-06 16:04 | 29.23806 | -78.24462 | 39112 ft | 509 kts | 158° |
| 2026-05-06 16:05 | 29.17451 | -78.20927 | 39106 ft | 507 kts | 158° |
| 2026-05-06 16:05 | 29.11107 | -78.17404 | 39111 ft | 507 kts | 158° |
| 2026-05-06 16:06 | 29.04762 | -78.13884 | 39107 ft | 506 kts | 158° |
| 2026-05-06 16:06 | 28.98427 | -78.10375 | 39110 ft | 506 kts | 158° |
| 2026-05-06 16:07 | 28.92111 | -78.06881 | 39113 ft | 505 kts | 158° |
| 2026-05-06 16:07 | 28.85786 | -78.03387 | 39119 ft | 505 kts | 158° |
| 2026-05-06 16:08 | 28.79466 | -77.99899 | 39122 ft | 504 kts | 158° |
| 2026-05-06 16:08 | 28.73138 | -77.96414 | 39117 ft | 505 kts | 157° |
| 2026-05-06 16:09 | 28.66817 | -77.92937 | 39120 ft | 505 kts | 157° |
| 2026-05-06 16:09 | 28.60492 | -77.89462 | 39118 ft | 504 kts | 157° |
| 2026-05-06 16:10 | 28.54174 | -77.85995 | 39109 ft | 504 kts | 157° |
| 2026-05-06 16:10 | 28.47870 | -77.82541 | 39118 ft | 503 kts | 157° |
| 2026-05-06 16:11 | 28.41606 | -77.79113 | 39115 ft | 503 kts | 157° |
| 2026-05-06 16:11 | 28.35301 | -77.75667 | 39118 ft | 502 kts | 157° |
| 2026-05-06 16:12 | 28.28999 | -77.72227 | 39119 ft | 503 kts | 157° |
| 2026-05-06 16:12 | 28.22704 | -77.68796 | 39120 ft | 502 kts | 157° |
| 2026-05-06 16:13 | 28.16419 | -77.65374 | 39119 ft | 502 kts | 157° |
| 2026-05-06 16:13 | 28.10108 | -77.62002 | 39120 ft | 501 kts | 158° |
| 2026-05-06 16:14 | 28.03785 | -77.58666 | 39118 ft | 501 kts | 158° |
| 2026-05-06 16:14 | 27.97472 | -77.55335 | 39116 ft | 502 kts | 158° |
| 2026-05-06 16:15 | 27.91149 | -77.52002 | 39118 ft | 501 kts | 158° |
| 2026-05-06 16:15 | 27.84829 | -77.48676 | 39119 ft | 501 kts | 158° |
| 2026-05-06 16:16 | 27.78517 | -77.45358 | 39123 ft | 501 kts | 158° |
| 2026-05-06 16:16 | 27.72188 | -77.42035 | 39129 ft | 502 kts | 158° |
| 2026-05-06 16:17 | 27.65860 | -77.38717 | 39129 ft | 501 kts | 158° |
| 2026-05-06 16:17 | 27.59567 | -77.35422 | 39128 ft | 502 kts | 157° |
| 2026-05-06 16:18 | 27.53246 | -77.32116 | 39127 ft | 502 kts | 157° |
| 2026-05-06 16:18 | 27.46915 | -77.28809 | 39128 ft | 502 kts | 157° |
| 2026-05-06 16:19 | 27.40582 | -77.25506 | 39128 ft | 502 kts | 157° |
| 2026-05-06 16:19 | 27.34256 | -77.22210 | 39130 ft | 502 kts | 157° |
| 2026-05-06 16:20 | 27.27907 | -77.18907 | 39127 ft | 502 kts | 157° |
| 2026-05-06 16:20 | 27.21570 | -77.15613 | 39130 ft | 503 kts | 157° |
| 2026-05-06 16:21 | 27.15221 | -77.12318 | 39121 ft | 502 kts | 157° |
| 2026-05-06 16:21 | 27.08894 | -77.09038 | 39129 ft | 503 kts | 157° |
| 2026-05-06 16:22 | 27.02540 | -77.05749 | 39128 ft | 503 kts | 157° |
| 2026-05-06 16:22 | 26.96185 | -77.02462 | 39128 ft | 503 kts | 157° |
| 2026-05-06 16:23 | 26.89839 | -76.99186 | 39127 ft | 503 kts | 157° |
| 2026-05-06 16:23 | 26.83486 | -76.95908 | 39128 ft | 502 kts | 157° |
| 2026-05-06 16:24 | 26.77129 | -76.92634 | 39129 ft | 503 kts | 157° |
| 2026-05-06 16:24 | 26.70810 | -76.89383 | 39128 ft | 504 kts | 157° |
| 2026-05-06 16:25 | 26.64454 | -76.86117 | 39129 ft | 503 kts | 157° |
| 2026-05-06 16:25 | 26.58090 | -76.82851 | 39129 ft | 504 kts | 156° |
| 2026-05-06 16:26 | 26.51718 | -76.79584 | 39125 ft | 504 kts | 156° |
| 2026-05-06 16:26 | 26.45348 | -76.76323 | 39128 ft | 504 kts | 156° |
| 2026-05-06 16:27 | 26.38988 | -76.73071 | 39128 ft | 504 kts | 156° |
| 2026-05-06 16:27 | 26.32615 | -76.69816 | 39128 ft | 504 kts | 156° |
| 2026-05-06 16:28 | 26.26240 | -76.66564 | 39127 ft | 504 kts | 156° |
| 2026-05-06 16:28 | 26.19876 | -76.63321 | 39129 ft | 504 kts | 156° |
| 2026-05-06 16:29 | 26.13495 | -76.60074 | 39128 ft | 504 kts | 156° |
| 2026-05-06 16:29 | 26.07116 | -76.56832 | 39129 ft | 504 kts | 156° |
| 2026-05-06 16:30 | 26.01812 | -76.54139 | 39127 ft | 504 kts | 156° |
| 2026-05-06 16:30 | 25.94359 | -76.50360 | 39129 ft | 504 kts | 156° |
| 2026-05-06 16:31 | 25.87987 | -76.47133 | 39129 ft | 503 kts | 156° |
| 2026-05-06 16:31 | 25.81610 | -76.43907 | 39128 ft | 504 kts | 156° |
| 2026-05-06 16:32 | 25.75247 | -76.40692 | 39126 ft | 503 kts | 156° |
| 2026-05-06 16:32 | 25.68872 | -76.37475 | 39129 ft | 504 kts | 156° |
| 2026-05-06 16:33 | 25.62491 | -76.34259 | 39127 ft | 503 kts | 156° |
| 2026-05-06 16:34 | 25.52930 | -76.29446 | 39129 ft | 504 kts | 156° |
| 2026-05-06 16:34 | 25.46542 | -76.26236 | 39128 ft | 504 kts | 156° |
| 2026-05-06 16:35 | 25.40204 | -76.23055 | 39129 ft | 503 kts | 156° |
| 2026-05-06 16:35 | 25.33822 | -76.19855 | 39128 ft | 504 kts | 156° |
| 2026-05-06 16:36 | 25.27448 | -76.16663 | 39127 ft | 504 kts | 156° |
| 2026-05-06 16:36 | 25.21068 | -76.13471 | 39129 ft | 503 kts | 156° |
| 2026-05-06 16:37 | 25.14695 | -76.10287 | 39128 ft | 503 kts | 156° |
| 2026-05-06 16:37 | 25.08318 | -76.07104 | 39128 ft | 503 kts | 156° |
| 2026-05-06 16:38 | 25.01954 | -76.03932 | 39127 ft | 503 kts | 156° |
| 2026-05-06 16:38 | 24.95578 | -76.00757 | 39129 ft | 503 kts | 156° |
| 2026-05-06 16:39 | 24.89206 | -75.97587 | 39120 ft | 503 kts | 156° |
| 2026-05-06 16:39 | 24.82822 | -75.94416 | 39134 ft | 505 kts | 156° |
| 2026-05-06 16:40 | 24.76415 | -75.91237 | 39128 ft | 505 kts | 156° |
| 2026-05-06 16:40 | 24.70016 | -75.88065 | 39124 ft | 504 kts | 156° |
| 2026-05-06 16:41 | 24.63627 | -75.84901 | 39129 ft | 504 kts | 156° |
| 2026-05-06 16:41 | 24.58320 | -75.82277 | 39127 ft | 504 kts | 156° |
| 2026-05-06 16:42 | 24.51925 | -75.79117 | 39130 ft | 503 kts | 156° |
| 2026-05-06 16:42 | 24.44505 | -75.75455 | 39134 ft | 503 kts | 156° |
| 2026-05-06 16:43 | 24.39162 | -75.72821 | 39128 ft | 503 kts | 156° |
| 2026-05-06 16:43 | 24.32780 | -75.69677 | 39128 ft | 503 kts | 156° |
| 2026-05-06 16:44 | 24.26394 | -75.66536 | 39128 ft | 503 kts | 156° |
| 2026-05-06 16:44 | 24.20013 | -75.63400 | 39126 ft | 502 kts | 156° |
| 2026-05-06 16:45 | 24.12629 | -75.59775 | 39128 ft | 502 kts | 156° |
| 2026-05-06 16:45 | 24.07327 | -75.57175 | 39127 ft | 503 kts | 156° |
| 2026-05-06 16:46 | 24.00939 | -75.54045 | 39126 ft | 503 kts | 156° |
| 2026-05-06 16:46 | 23.94546 | -75.50923 | 39129 ft | 503 kts | 156° |
| 2026-05-06 16:47 | 23.88170 | -75.47809 | 39132 ft | 503 kts | 156° |
| 2026-05-06 16:47 | 23.81779 | -75.44689 | 39125 ft | 503 kts | 156° |
| 2026-05-06 16:48 | 23.75384 | -75.41572 | 39128 ft | 503 kts | 156° |
| 2026-05-06 16:48 | 23.68993 | -75.38459 | 39130 ft | 504 kts | 156° |
| 2026-05-06 16:49 | 23.62585 | -75.35342 | 39127 ft | 504 kts | 156° |
| 2026-05-06 16:49 | 23.56173 | -75.32226 | 39125 ft | 505 kts | 156° |
| 2026-05-06 16:50 | 23.49755 | -75.29111 | 39135 ft | 505 kts | 156° |
| 2026-05-06 16:50 | 23.43349 | -75.26005 | 39127 ft | 505 kts | 156° |
| 2026-05-06 16:51 | 23.36962 | -75.22911 | 39128 ft | 506 kts | 156° |
| 2026-05-06 16:51 | 23.30531 | -75.19800 | 39126 ft | 506 kts | 156° |
| 2026-05-06 16:52 | 23.24101 | -75.16692 | 39129 ft | 506 kts | 156° |
| 2026-05-06 16:52 | 23.17669 | -75.13586 | 39119 ft | 507 kts | 155° |
| 2026-05-06 16:53 | 23.11213 | -75.10472 | 39122 ft | 508 kts | 155° |
| 2026-05-06 16:53 | 23.05037 | -75.06814 | 39148 ft | 506 kts | 148° |
| 2026-05-06 16:54 | 22.98997 | -75.02899 | 39109 ft | 506 kts | 147° |
| 2026-05-06 16:54 | 22.92957 | -74.98967 | 39120 ft | 506 kts | 147° |
| 2026-05-06 16:55 | 22.86914 | -74.95037 | 39120 ft | 507 kts | 147° |
| 2026-05-06 16:55 | 22.80871 | -74.91109 | 39118 ft | 507 kts | 147° |
| 2026-05-06 16:56 | 22.74819 | -74.87182 | 39120 ft | 507 kts | 147° |
| 2026-05-06 16:56 | 22.68768 | -74.83258 | 39117 ft | 507 kts | 147° |
| 2026-05-06 16:57 | 22.62710 | -74.79334 | 39121 ft | 508 kts | 147° |
| 2026-05-06 16:57 | 22.56671 | -74.75426 | 39118 ft | 507 kts | 147° |
| 2026-05-06 16:58 | 22.50608 | -74.71506 | 39119 ft | 508 kts | 147° |
| 2026-05-06 16:58 | 22.44539 | -74.67588 | 39123 ft | 508 kts | 147° |
| 2026-05-06 16:59 | 22.38465 | -74.63669 | 39119 ft | 508 kts | 147° |
| 2026-05-06 16:59 | 22.32403 | -74.59763 | 39121 ft | 509 kts | 147° |
| 2026-05-06 17:00 | 22.26316 | -74.55844 | 39114 ft | 509 kts | 147° |
| 2026-05-06 17:00 | 22.20238 | -74.51935 | 39119 ft | 509 kts | 147° |
| 2026-05-06 17:01 | 22.14146 | -74.48021 | 39107 ft | 510 kts | 147° |
| 2026-05-06 17:01 | 22.08055 | -74.44112 | 39109 ft | 510 kts | 147° |
| 2026-05-06 17:02 | 22.01952 | -74.40199 | 39111 ft | 510 kts | 147° |
| 2026-05-06 17:02 | 21.95895 | -74.36319 | 39110 ft | 510 kts | 147° |
| 2026-05-06 17:03 | 21.89760 | -74.32394 | 39108 ft | 510 kts | 147° |
| 2026-05-06 17:03 | 21.83700 | -74.28521 | 39112 ft | 510 kts | 147° |
| 2026-05-06 17:04 | 21.77607 | -74.24630 | 39109 ft | 510 kts | 147° |
| 2026-05-06 17:04 | 21.71509 | -74.20740 | 39101 ft | 510 kts | 147° |
| 2026-05-06 17:05 | 21.65422 | -74.16861 | 39101 ft | 510 kts | 147° |
| 2026-05-06 17:05 | 21.59317 | -74.12974 | 39102 ft | 510 kts | 147° |
| 2026-05-06 17:06 | 21.53211 | -74.09090 | 39095 ft | 510 kts | 147° |
| 2026-05-06 17:06 | 21.47123 | -74.05222 | 39100 ft | 509 kts | 147° |
| 2026-05-06 17:07 | 21.41029 | -74.01353 | 39100 ft | 509 kts | 147° |
| 2026-05-06 17:07 | 21.34934 | -73.97487 | 39098 ft | 509 kts | 146° |
| 2026-05-06 17:08 | 21.28841 | -73.93627 | 39103 ft | 510 kts | 146° |
| 2026-05-06 17:08 | 21.22729 | -73.89760 | 39099 ft | 509 kts | 146° |
| 2026-05-06 17:09 | 21.16624 | -73.85898 | 39105 ft | 510 kts | 146° |
| 2026-05-06 17:09 | 21.10522 | -73.82044 | 39092 ft | 508 kts | 146° |
| 2026-05-06 17:10 | 21.04436 | -73.78203 | 39093 ft | 509 kts | 146° |
| 2026-05-06 17:10 | 20.98338 | -73.74358 | 39087 ft | 509 kts | 146° |
| 2026-05-06 17:11 | 20.92285 | -73.70546 | 39080 ft | 507 kts | 146° |
| 2026-05-06 17:11 | 20.86207 | -73.66722 | 39083 ft | 508 kts | 146° |
| 2026-05-06 17:12 | 20.80117 | -73.62893 | 39080 ft | 507 kts | 146° |
| 2026-05-06 17:12 | 20.74035 | -73.59072 | 39083 ft | 507 kts | 146° |
| 2026-05-06 17:13 | 20.67967 | -73.55265 | 39082 ft | 507 kts | 146° |
| 2026-05-06 17:13 | 20.61869 | -73.51442 | 39083 ft | 507 kts | 146° |
| 2026-05-06 17:14 | 20.55784 | -73.47630 | 39081 ft | 507 kts | 146° |
| 2026-05-06 17:14 | 20.49694 | -73.43820 | 39084 ft | 507 kts | 146° |
| 2026-05-06 17:15 | 20.43671 | -73.40055 | 39082 ft | 507 kts | 146° |
| 2026-05-06 17:15 | 20.37592 | -73.36257 | 39082 ft | 507 kts | 146° |
| 2026-05-06 17:16 | 20.31502 | -73.32456 | 39083 ft | 507 kts | 146° |
| 2026-05-06 17:16 | 20.25410 | -73.28657 | 39081 ft | 507 kts | 146° |
| 2026-05-06 17:17 | 20.19371 | -73.24895 | 39082 ft | 507 kts | 146° |
| 2026-05-06 17:17 | 20.13219 | -73.21203 | 39082 ft | 508 kts | 150° |
| 2026-05-06 17:18 | 20.06947 | -73.17717 | 39082 ft | 509 kts | 149° |
| 2026-05-06 17:18 | 20.00704 | -73.14212 | 39081 ft | 508 kts | 149° |
| 2026-05-06 17:19 | 19.94454 | -73.10705 | 39077 ft | 507 kts | 149° |
| 2026-05-06 17:19 | 19.88229 | -73.07209 | 39067 ft | 506 kts | 149° |
| 2026-05-06 17:20 | 19.82000 | -73.03713 | 39074 ft | 506 kts | 149° |
| 2026-05-06 17:20 | 19.75836 | -73.00152 | 39046 ft | 505 kts | 147° |
| 2026-05-06 17:21 | 19.69723 | -72.96459 | 39056 ft | 506 kts | 147° |
| 2026-05-06 17:21 | 19.63592 | -72.92780 | 39053 ft | 506 kts | 147° |
| 2026-05-06 17:22 | 19.57463 | -72.89106 | 39050 ft | 506 kts | 147° |
| 2026-05-06 17:22 | 19.51339 | -72.85439 | 39056 ft | 506 kts | 147° |
| 2026-05-06 17:23 | 19.45208 | -72.81770 | 39052 ft | 506 kts | 147° |
| 2026-05-06 17:23 | 19.39077 | -72.78105 | 39057 ft | 506 kts | 147° |
| 2026-05-06 17:24 | 19.32964 | -72.74453 | 39053 ft | 505 kts | 147° |
| 2026-05-06 17:24 | 19.26839 | -72.70797 | 39054 ft | 505 kts | 147° |
| 2026-05-06 17:25 | 19.20714 | -72.67145 | 39043 ft | 506 kts | 147° |
| 2026-05-06 17:25 | 19.14582 | -72.63492 | 39051 ft | 505 kts | 147° |
| 2026-05-06 17:26 | 19.08463 | -72.59870 | 39045 ft | 505 kts | 148° |
| 2026-05-06 17:26 | 19.02348 | -72.56323 | 39049 ft | 505 kts | 148° |
| 2026-05-06 17:27 | 18.96192 | -72.52748 | 39031 ft | 504 kts | 148° |
| 2026-05-06 17:27 | 18.90053 | -72.49183 | 39036 ft | 504 kts | 148° |
| 2026-05-06 17:28 | 18.83913 | -72.45622 | 39046 ft | 504 kts | 148° |
| 2026-05-06 17:28 | 18.77769 | -72.42060 | 39046 ft | 503 kts | 148° |
| 2026-05-06 17:29 | 18.71626 | -72.38504 | 39045 ft | 503 kts | 148° |
| 2026-05-06 17:29 | 18.65500 | -72.34959 | 39046 ft | 503 kts | 148° |
| 2026-05-06 17:30 | 18.59373 | -72.31416 | 39046 ft | 502 kts | 148° |
| 2026-05-06 17:30 | 18.53070 | -72.28191 | 39058 ft | 504 kts | 152° |
| 2026-05-06 17:31 | 18.47827 | -72.25529 | 39048 ft | 503 kts | 152° |
| 2026-05-06 17:31 | 18.41541 | -72.22326 | 39049 ft | 503 kts | 152° |
| 2026-05-06 17:32 | 18.35241 | -72.19118 | 39061 ft | 503 kts | 152° |
| 2026-05-06 17:32 | 18.28944 | -72.15915 | 39034 ft | 502 kts | 152° |
| 2026-05-06 17:33 | 18.22814 | -72.12432 | 39059 ft | 502 kts | 148° |
| 2026-05-06 17:33 | 18.16715 | -72.08883 | 39051 ft | 500 kts | 148° |
| 2026-05-06 17:34 | 18.10617 | -72.05356 | 39057 ft | 501 kts | 148° |
| 2026-05-06 17:34 | 18.04548 | -72.01851 | 39054 ft | 500 kts | 148° |
| 2026-05-06 17:35 | 17.98464 | -71.98339 | 39054 ft | 500 kts | 148° |
| 2026-05-06 17:35 | 17.92387 | -71.94781 | 39052 ft | 499 kts | 146° |
| 2026-05-06 17:36 | 17.83464 | -71.89148 | 39055 ft | 499 kts | 146° |
| 2026-05-06 17:36 | 17.77524 | -71.85429 | 39062 ft | 498 kts | 146° |
| 2026-05-06 17:37 | 17.71567 | -71.81702 | 39065 ft | 498 kts | 146° |
| 2026-05-06 17:37 | 17.65628 | -71.77989 | 39061 ft | 497 kts | 146° |
| 2026-05-06 17:38 | 17.59706 | -71.74290 | 39064 ft | 496 kts | 147° |
| 2026-05-06 17:38 | 17.53781 | -71.70580 | 39067 ft | 496 kts | 147° |
| 2026-05-06 17:39 | 17.47873 | -71.66875 | 39063 ft | 494 kts | 147° |
| 2026-05-06 17:39 | 17.41979 | -71.63182 | 39064 ft | 494 kts | 147° |
| 2026-05-06 17:40 | 17.36110 | -71.59507 | 39064 ft | 492 kts | 147° |
| 2026-05-06 17:40 | 17.30245 | -71.55837 | 39067 ft | 490 kts | 147° |
| 2026-05-06 17:41 | 17.24400 | -71.52183 | 39064 ft | 489 kts | 148° |
| 2026-05-06 17:41 | 17.18572 | -71.48541 | 39064 ft | 487 kts | 148° |
| 2026-05-06 17:42 | 17.12770 | -71.44915 | 39064 ft | 486 kts | 148° |
| 2026-05-06 17:42 | 17.06975 | -71.41296 | 39063 ft | 484 kts | 148° |
| 2026-05-06 17:43 | 17.01197 | -71.37691 | 39063 ft | 483 kts | 148° |
| 2026-05-06 17:43 | 16.95473 | -71.34122 | 39052 ft | 482 kts | 148° |
| 2026-05-06 17:44 | 16.89712 | -71.30534 | 39054 ft | 482 kts | 149° |
| 2026-05-06 17:44 | 16.83964 | -71.26957 | 39053 ft | 481 kts | 149° |
| 2026-05-06 17:45 | 16.78222 | -71.23387 | 39055 ft | 480 kts | 149° |
| 2026-05-06 17:45 | 16.72508 | -71.19836 | 39053 ft | 479 kts | 149° |
| 2026-05-06 17:46 | 16.66786 | -71.16284 | 39054 ft | 478 kts | 149° |
| 2026-05-06 17:46 | 16.61073 | -71.12739 | 39056 ft | 477 kts | 149° |
| 2026-05-06 17:47 | 16.55365 | -71.09201 | 39054 ft | 477 kts | 149° |
| 2026-05-06 17:47 | 16.49679 | -71.05678 | 39075 ft | 476 kts | 149° |
| 2026-05-06 17:48 | 16.43989 | -71.02155 | 39072 ft | 476 kts | 149° |
| 2026-05-06 17:48 | 16.38306 | -70.98639 | 39071 ft | 475 kts | 150° |
| 2026-05-06 17:49 | 16.32634 | -70.95131 | 39074 ft | 474 kts | 150° |
| 2026-05-06 17:49 | 16.26984 | -70.91641 | 39071 ft | 473 kts | 150° |
| 2026-05-06 17:50 | 16.21360 | -70.88168 | 39072 ft | 472 kts | 150° |
| 2026-05-06 17:50 | 16.15679 | -70.84663 | 39064 ft | 472 kts | 150° |
| 2026-05-06 17:51 | 16.10040 | -70.81185 | 39058 ft | 471 kts | 150° |
| 2026-05-06 17:51 | 16.04461 | -70.77748 | 39054 ft | 470 kts | 150° |
| 2026-05-06 17:52 | 15.98579 | -70.74934 | 39030 ft | 462 kts | 171° |
| 2026-05-06 17:52 | 15.92265 | -70.73752 | 39016 ft | 460 kts | 172° |
| 2026-05-06 17:53 | 15.85957 | -70.72645 | 39063 ft | 460 kts | 173° |
| 2026-05-06 17:53 | 15.79663 | -70.71583 | 39054 ft | 459 kts | 173° |
| 2026-05-06 17:54 | 15.73344 | -70.70522 | 39047 ft | 460 kts | 173° |
| 2026-05-06 17:54 | 15.67037 | -70.69464 | 39045 ft | 459 kts | 173° |
| 2026-05-06 17:55 | 15.60741 | -70.68409 | 39045 ft | 459 kts | 173° |
| 2026-05-06 17:55 | 15.54429 | -70.67351 | 39044 ft | 460 kts | 173° |
| 2026-05-06 17:56 | 15.48112 | -70.66293 | 39044 ft | 459 kts | 173° |
| 2026-05-06 17:56 | 15.41802 | -70.65238 | 39037 ft | 459 kts | 173° |
| 2026-05-06 17:57 | 15.35500 | -70.64184 | 39038 ft | 460 kts | 173° |
| 2026-05-06 17:57 | 15.29184 | -70.63129 | 39035 ft | 460 kts | 173° |
| 2026-05-06 17:58 | 15.22872 | -70.62075 | 39036 ft | 460 kts | 173° |
| 2026-05-06 17:58 | 15.16550 | -70.61020 | 39029 ft | 460 kts | 173° |
| 2026-05-06 17:59 | 15.10249 | -70.59969 | 39026 ft | 459 kts | 173° |
| 2026-05-06 17:59 | 15.03944 | -70.58918 | 39008 ft | 459 kts | 173° |
| 2026-05-06 18:00 | 14.97629 | -70.57865 | 39019 ft | 460 kts | 173° |
| 2026-05-06 18:00 | 14.94479 | -70.57341 | 38395 ft | 460 kts | 173° |
| 2026-05-06 18:00 | 14.91285 | -70.56810 | 37394 ft | 469 kts | 173° |
| 2026-05-06 18:01 | 14.88094 | -70.56278 | 36647 ft | 471 kts | 173° |
| 2026-05-06 18:01 | 14.84891 | -70.55745 | 36206 ft | 465 kts | 173° |
| 2026-05-06 18:01 | 14.81721 | -70.55218 | 35848 ft | 458 kts | 173° |
| 2026-05-06 18:01 | 14.78595 | -70.54698 | 35378 ft | 454 kts | 173° |
| 2026-05-06 18:02 | 14.75483 | -70.54180 | 34802 ft | 453 kts | 173° |
| 2026-05-06 18:02 | 14.72371 | -70.53664 | 34230 ft | 452 kts | 173° |
| 2026-05-06 18:02 | 14.69276 | -70.53149 | 33716 ft | 450 kts | 173° |
| 2026-05-06 18:02 | 14.66190 | -70.52637 | 33219 ft | 447 kts | 172° |
| 2026-05-06 18:03 | 14.63124 | -70.52128 | 32708 ft | 445 kts | 173° |
| 2026-05-06 18:03 | 14.60081 | -70.51623 | 32189 ft | 444 kts | 172° |
| 2026-05-06 18:03 | 14.57040 | -70.51118 | 31655 ft | 442 kts | 172° |
| 2026-05-06 18:03 | 14.54010 | -70.50615 | 31162 ft | 440 kts | 172° |
| 2026-05-06 18:04 | 14.50996 | -70.50115 | 30671 ft | 438 kts | 172° |
| 2026-05-06 18:04 | 14.47996 | -70.49618 | 30183 ft | 435 kts | 172° |
| 2026-05-06 18:04 | 14.45011 | -70.49123 | 29697 ft | 433 kts | 172° |
| 2026-05-06 18:04 | 14.42044 | -70.48632 | 29219 ft | 430 kts | 172° |
| 2026-05-06 18:05 | 14.39097 | -70.48143 | 28745 ft | 428 kts | 172° |
| 2026-05-06 18:05 | 14.36175 | -70.47659 | 28292 ft | 426 kts | 172° |
| 2026-05-06 18:05 | 14.33253 | -70.47176 | 27827 ft | 424 kts | 172° |
| 2026-05-06 18:05 | 14.30353 | -70.46696 | 27371 ft | 421 kts | 171° |
| 2026-05-06 18:06 | 14.27503 | -70.46224 | 26925 ft | 419 kts | 171° |
| 2026-05-06 18:06 | 14.24636 | -70.45749 | 26483 ft | 416 kts | 171° |
| 2026-05-06 18:06 | 14.21782 | -70.45277 | 26037 ft | 414 kts | 171° |
| 2026-05-06 18:06 | 14.18943 | -70.44808 | 25594 ft | 412 kts | 171° |
| 2026-05-06 18:07 | 14.16117 | -70.44341 | 25170 ft | 410 kts | 171° |
| 2026-05-06 18:07 | 14.13308 | -70.43876 | 24743 ft | 408 kts | 171° |
| 2026-05-06 18:07 | 14.10520 | -70.43416 | 24316 ft | 406 kts | 171° |
| 2026-05-06 18:07 | 14.07741 | -70.42956 | 23905 ft | 404 kts | 170° |
| 2026-05-06 18:08 | 14.04975 | -70.42499 | 23487 ft | 401 kts | 170° |
| 2026-05-06 18:08 | 14.02223 | -70.42045 | 23072 ft | 399 kts | 170° |
| 2026-05-06 18:08 | 13.99490 | -70.41594 | 22655 ft | 397 kts | 170° |
| 2026-05-06 18:08 | 13.96769 | -70.41145 | 22245 ft | 395 kts | 170° |
| 2026-05-06 18:09 | 13.94069 | -70.40699 | 21857 ft | 392 kts | 170° |
| 2026-05-06 18:09 | 13.91382 | -70.40257 | 21431 ft | 390 kts | 170° |
| 2026-05-06 18:09 | 13.88708 | -70.39815 | 21026 ft | 388 kts | 170° |
| 2026-05-06 18:09 | 13.86053 | -70.39378 | 20627 ft | 386 kts | 170° |
| 2026-05-06 18:10 | 13.83406 | -70.38941 | 20228 ft | 384 kts | 170° |
| 2026-05-06 18:10 | 13.80776 | -70.38508 | 19831 ft | 382 kts | 170° |
| 2026-05-06 18:10 | 13.78154 | -70.38075 | 19428 ft | 380 kts | 170° |
| 2026-05-06 18:10 | 13.75546 | -70.37646 | 19033 ft | 378 kts | 170° |
| 2026-05-06 18:11 | 13.72960 | -70.37220 | 18641 ft | 375 kts | 170° |
| 2026-05-06 18:11 | 13.71254 | -70.36939 | 18381 ft | 374 kts | 170° |
| 2026-05-06 18:11 | 13.67839 | -70.36377 | 17865 ft | 370 kts | 170° |
| 2026-05-06 18:11 | 13.65302 | -70.35959 | 17481 ft | 368 kts | 169° |
| 2026-05-06 18:12 | 13.62788 | -70.35546 | 17101 ft | 365 kts | 169° |
| 2026-05-06 18:12 | 13.60288 | -70.35135 | 16725 ft | 363 kts | 169° |
| 2026-05-06 18:12 | 13.57805 | -70.34726 | 16341 ft | 360 kts | 169° |
| 2026-05-06 18:12 | 13.55339 | -70.34321 | 15965 ft | 357 kts | 169° |
| 2026-05-06 18:13 | 13.52891 | -70.33918 | 15591 ft | 355 kts | 169° |
| 2026-05-06 18:13 | 13.50462 | -70.33519 | 15221 ft | 352 kts | 169° |
| 2026-05-06 18:13 | 13.48058 | -70.33124 | 14853 ft | 349 kts | 169° |
| 2026-05-06 18:13 | 13.45669 | -70.32731 | 14489 ft | 345 kts | 169° |
| 2026-05-06 18:14 | 13.43308 | -70.32343 | 14132 ft | 343 kts | 169° |
| 2026-05-06 18:14 | 13.40963 | -70.31958 | 13770 ft | 339 kts | 169° |
| 2026-05-06 18:14 | 13.38686 | -70.31585 | 13419 ft | 336 kts | 169° |
| 2026-05-06 18:14 | 13.36387 | -70.31207 | 13064 ft | 333 kts | 169° |
| 2026-05-06 18:15 | 13.34113 | -70.30834 | 12714 ft | 330 kts | 168° |
| 2026-05-06 18:15 | 13.31856 | -70.30463 | 12369 ft | 327 kts | 168° |
| 2026-05-06 18:15 | 13.29620 | -70.30096 | 12023 ft | 324 kts | 168° |
| 2026-05-06 18:15 | 13.27404 | -70.29732 | 11675 ft | 321 kts | 168° |
| 2026-05-06 18:16 | 13.25207 | -70.29372 | 11330 ft | 318 kts | 168° |
| 2026-05-06 18:16 | 13.23030 | -70.29015 | 10989 ft | 315 kts | 168° |
| 2026-05-06 18:16 | 13.20877 | -70.28662 | 10654 ft | 312 kts | 168° |
| 2026-05-06 18:16 | 13.18749 | -70.28313 | 10329 ft | 308 kts | 168° |
| 2026-05-06 18:17 | 13.16648 | -70.27969 | 10066 ft | 303 kts | 168° |
| 2026-05-06 18:17 | 13.14607 | -70.27636 | 9992 ft | 291 kts | 168° |
| 2026-05-06 18:17 | 13.12661 | -70.27319 | 10021 ft | 280 kts | 168° |
| 2026-05-06 18:17 | 13.10741 | -70.27005 | 9912 ft | 280 kts | 168° |
| 2026-05-06 18:18 | 13.08807 | -70.26690 | 9503 ft | 283 kts | 168° |
| 2026-05-06 18:18 | 13.06864 | -70.26373 | 9121 ft | 283 kts | 167° |
| 2026-05-06 18:18 | 13.04927 | -70.26057 | 8850 ft | 279 kts | 167° |
| 2026-05-06 18:18 | 13.03032 | -70.25748 | 8657 ft | 272 kts | 167° |
| 2026-05-06 18:19 | 13.01191 | -70.25450 | 8502 ft | 265 kts | 167° |
| 2026-05-06 18:19 | 12.99362 | -70.25151 | 8308 ft | 266 kts | 167° |
| 2026-05-06 18:19 | 12.97542 | -70.24854 | 8110 ft | 264 kts | 167° |
| 2026-05-06 18:19 | 12.95726 | -70.24558 | 7931 ft | 264 kts | 167° |
| 2026-05-06 18:20 | 12.94528 | -70.24363 | 7821 ft | 263 kts | 167° |
| 2026-05-06 18:20 | 12.92135 | -70.23973 | 7571 ft | 262 kts | 167° |
| 2026-05-06 18:20 | 12.90333 | -70.23680 | 7395 ft | 262 kts | 167° |
| 2026-05-06 18:20 | 12.88537 | -70.23385 | 7241 ft | 261 kts | 167° |
| 2026-05-06 18:21 | 12.86770 | -70.23098 | 7050 ft | 254 kts | 167° |
| 2026-05-06 18:21 | 12.85049 | -70.22819 | 6856 ft | 247 kts | 167° |
| 2026-05-06 18:21 | 12.83913 | -70.22634 | 6709 ft | 243 kts | 167° |
| 2026-05-06 18:21 | 12.82265 | -70.22367 | 6543 ft | 236 kts | 166° |
| 2026-05-06 18:22 | 12.80669 | -70.22108 | 6389 ft | 228 kts | 166° |
| 2026-05-06 18:22 | 12.79131 | -70.21857 | 6244 ft | 220 kts | 166° |
| 2026-05-06 18:22 | 12.77649 | -70.21617 | 6098 ft | 209 kts | 166° |
| 2026-05-06 18:22 | 12.76255 | -70.21391 | 5963 ft | 197 kts | 165° |
| 2026-05-06 18:23 | 12.74931 | -70.21174 | 5821 ft | 195 kts | 166° |
| 2026-05-06 18:23 | 12.73585 | -70.20956 | 5705 ft | 196 kts | 166° |
| 2026-05-06 18:23 | 12.72235 | -70.20737 | 5556 ft | 196 kts | 165° |
| 2026-05-06 18:23 | 12.70893 | -70.20517 | 5389 ft | 195 kts | 165° |
| 2026-05-06 18:24 | 12.69552 | -70.20300 | 5280 ft | 196 kts | 165° |
| 2026-05-06 18:24 | 12.68204 | -70.20080 | 5159 ft | 197 kts | 165° |
| 2026-05-06 18:24 | 12.66855 | -70.19861 | 4996 ft | 195 kts | 165° |
| 2026-05-06 18:24 | 12.65512 | -70.19645 | 4828 ft | 196 kts | 166° |
| 2026-05-06 18:25 | 12.64134 | -70.19737 | 4657 ft | 203 kts | 185° |
| 2026-05-06 18:25 | 12.62745 | -70.20054 | 4538 ft | 205 kts | 186° |
| 2026-05-06 18:25 | 12.61376 | -70.20377 | 4373 ft | 197 kts | 186° |
| 2026-05-06 18:25 | 12.60075 | -70.20688 | 4242 ft | 186 kts | 185° |
| 2026-05-06 18:26 | 12.58850 | -70.20987 | 4102 ft | 177 kts | 185° |
| 2026-05-06 18:26 | 12.57672 | -70.21272 | 3920 ft | 170 kts | 185° |
| 2026-05-06 18:26 | 12.56536 | -70.21452 | 3703 ft | 158 kts | 163° |
| 2026-05-06 18:26 | 12.55638 | -70.20990 | 3450 ft | 139 kts | 126° |
| 2026-05-06 18:27 | 12.55111 | -70.20208 | 3564 ft | 137 kts | 112° |
| 2026-05-06 18:27 | 12.54673 | -70.19302 | 3174 ft | 148 kts | 111° |
| 2026-05-06 18:27 | 12.54331 | -70.18411 | 3270 ft | 134 kts | 105° |
| 2026-05-06 18:27 | 12.54022 | -70.17460 | 2514 ft | 152 kts | 104° |
| 2026-05-06 18:28 | 12.53728 | -70.16421 | 2187 ft | 133 kts | 102° |
| 2026-05-06 18:28 | 12.53516 | -70.15610 | 2450 ft | 118 kts | 101° |
| 2026-05-06 18:28 | 12.53297 | -70.14718 | 1763 ft | 134 kts | 103° |
| 2026-05-06 18:28 | 12.53105 | -70.13951 | 1917 ft | 103 kts | 104° |
| 2026-05-06 18:29 | 12.52921 | -70.13209 | 1764 ft | 109 kts | 102° |
| 2026-05-06 18:29 | 12.52736 | -70.12413 | 1645 ft | 120 kts | 102° |
| 2026-05-06 18:29 | 12.52534 | -70.11559 | 1551 ft | 129 kts | 103° |
| 2026-05-06 18:29 | 12.52320 | -70.10657 | 1464 ft | 132 kts | 103° |
| 2026-05-06 18:30 | 12.52086 | -70.09711 | 1183 ft | 135 kts | 102° |
| 2026-05-06 18:30 | 12.51868 | -70.08835 | 1135 ft | 121 kts | 101° |
| 2026-05-06 18:30 | 12.51679 | -70.08008 | 950 ft | 120 kts | 102° |
| 2026-05-06 18:30 | 12.51453 | -70.07144 | 802 ft | 132 kts | 103° |
| 2026-05-06 18:31 | 12.51213 | -70.06217 | 834 ft | 139 kts | 101° |
| 2026-05-06 18:31 | 12.51013 | -70.05249 | 649 ft | 136 kts | 101° |
| 2026-05-06 18:31 | 12.50793 | -70.04309 | 395 ft | 136 kts | 102° |
| 2026-05-06 18:31 | 12.50566 | -70.03360 | 205 ft | 140 kts | 101° |
| 2026-05-06 18:32 | 12.50351 | -70.02406 | 50 ft | 137 kts | 103° |
| 2026-05-06 18:32 | 12.50158 | -70.01596 | 48 ft | 82 kts | 103° |
| 2026-05-06 18:32 | 12.50070 | -70.01225 | 51 ft | 36 kts | 103° |
| 2026-05-06 18:32 | 12.50035 | -70.01076 | 50 ft | 19 kts | 102° |
| 2026-05-06 18:33 | 12.50113 | -70.01000 | 48 ft | 15 kts | 13° |
| 2026-05-06 18:33 | 12.50135 | -70.00995 | 48 ft | 0 kts | 12° |
| 2026-05-06 18:33 | 12.50147 | -70.00993 | 48 ft | 1 kts | 11° |
| 2026-05-06 18:33 | 12.50153 | -70.00991 | 50 ft | 3 kts | 11° |
| 2026-05-06 18:34 | 12.50178 | -70.00985 | 50 ft | 5 kts | 14° |
| 2026-05-06 18:34 | 12.50219 | -70.00961 | 46 ft | 8 kts | 53° |
| 2026-05-06 18:34 | 12.50223 | -70.00896 | 47 ft | 11 kts | 101° |
| 2026-05-06 18:34 | 12.50226 | -70.00836 | 49 ft | 8 kts | 27° |
| 2026-05-06 18:35 | 12.50275 | -70.00825 | 46 ft | 4 kts | 13° |
| 2026-05-06 18:35 | 12.50285 | -70.00822 | 49 ft | 0 kts | 13° |